ADDS TAF Board (Experimental) INFO Settings
IDs: Format: Expanded Condensed

KDCA - Washington/National, VA, US

Issued at 1141 UTC 30 Jul 2015
Updated at: 1408 UTC 30 Jul 2015
Time1352Z 30/15Z 30/16Z 30/17Z 30/18Z 30/19Z 30/20Z 30/21Z 30/22Z 30/23Z 31/00Z 31/01Z 31/02Z 31/03Z
Type OBS PRVL PRVL PRVL PRVL PRVL PRVL
  [TEMP]  
PRVL
  [TEMP]  
PRVL
  [TEMP]  
PRVL
  [TEMP]  
PRVL PRVL PRVL PRVL
VIS 10 >6 >6 >6 >6 >6 >6
  [4]  
>6
  [4]  
>6
  [4]  
>6
  [4]  
>6 >6 >6 >6
CIG 250 150 60 60 60 60 60
  [50]  
60
  [50]  
60
  [50]  
60
  [50]  
-- -- -- --
Cover BKN BKN BKN BKN BKN BKN BKN
  [BKN]  
BKN
  [BKN]  
BKN
  [BKN]  
BKN
  [BKN]  
SCT SCT SCT SCT
FltCat VFR VFR VFR VFR VFR VFR VFR
  [MVFR]  
VFR
  [MVFR]  
VFR
  [MVFR]  
VFR
  [MVFR]  
VFR VFR VFR VFR
WX -- -- VCTS VCTS VCTS VCTS VCTS
  [-TSRA]  
VCTS
  [-TSRA]  
VCTS
  [-TSRA]  
VCTS
  [-TSRA]  
-- -- -- --
WDir 180 190 220 220 220 220 220
[220]
220
[220]
220
[220]
220
[220]
290 290 290 290
WSpd 9 8 10 10 10 10 10
  [10]  
10
  [10]  
10
  [10]  
10
  [10]  
6 6 6 6
WGst -- -- -- -- -- -- --
  [--]  
--
  [--]  
--
  [--]  
--
  [--]  
-- -- -- --
R01/19
XWnd 1 2 7 7 7 7 7 7 7 7 5 5 5 5
XGst -- -- -- -- -- -- 0 0 0 0 -- -- -- --
HWnd -9 -8 -7 -7 -7 -7 -7 -7 -7 -7 3 3 3 3
HGst -- -- -- -- -- -- 0 0 0 0 -- -- -- --
R04/22
XWnd -4 -2 2 2 2 2 2 2 2 2 6 6 6 6
XGst -- -- -- -- -- -- 0 0 0 0 -- -- -- --
HWnd -8 -8 -10 -10 -10 -10 -10 -10 -10 -10 -1 -1 -1 -1
HGst -- -- -- -- -- -- 0 0 0 0 -- -- -- --
R15/33
XWnd -5 -6 -10 -10 -10 -10 -10 -10 -10 -10 -3 -3 -3 -3
XGst -- -- -- -- -- -- 0 0 0 0 -- -- -- --
HWnd 7 5 2 2 2 2 2 2 2 2 -5 -5 -5 -5
HGst -- -- -- -- -- -- 0 0 0 0 -- -- -- --

NOTE: TEMPO conditions in [brackets]. Keep in mind TEMPO conditions might be better (lower impact) than prevailing conditions.

Raw TAF
KDCA 301141Z 3012/3112 19008KT P6SM BKN150
  FM301600 22010KT P6SM VCTS BKN060CB
  TEMPO 3020/3024 4SM -TSRA BKN050CB
  FM310000 29006KT P6SM SCT060
  FM310400 32008KT P6SM FEW250


Raw METAR
KDCA 301352Z 18009KT 10SM FEW030 SCT150 BKN250 29/24 A2991 RMK AO2 SLP129 T02890239
KDCA 301252Z 19008KT 10SM FEW020 BKN150 BKN250 28/23 A2993 RMK AO2 SLP134 T02780233
KDCA 301152Z 19007KT 10SM FEW020 BKN150 27/23 A2992 RMK AO2 SLP132 T02720228 10283 20267 50003

METAR Board
Radar Display
Forecast Discussion

TAF Board Legend

Potential Impact
Threat None Slight Moderate High
Visibility (sm) ≥5.1 5.1>X≥3 3>X≥1 <1
Ceiling (100 ft) ≥30.1 30.1>X≥10 10>X≥5 <5
Wind Speed (kt) <10 10≤X<20 20≤X<30 ≥30
Wind Gust (kt) <15 15≤X<25 25≤X<35 ≥35
Weather No Wx Reported VCTS,-TS,-FZRA,SN TS,FZRA +TS,+FZRA,+SN